NOO2829 SKRG-SKCL
Flight info
| Callsign | NOO2829 |
|---|---|
| Flight time | 0h 43m |
| Altitude | 22000 |
| Route | RNG2B RNG DCT ISVON DCT MATRO DCT PEI DCT ULQ ULQ4E |
| Aircraft | A320/M-SDE3FGHIRWY/LB1 |
Departure
| Time | 2026-04-29 20:34 |
|---|---|
| Airport | Jose Maria Córdova International Airport (SKRG) |
Arrival
| Time | 2026-04-29 21:17 |
|---|---|
| Airport | Alfonso Bonilla Aragon International Airport (SKCL) |
| Time | Latitude | Longitude | Altitude | Speed | Heading |
|---|---|---|---|---|---|
| 2026-04-29 19:08 | 6.16927 | -75.42987 | 7016 ft | 0 kts | 346° |
| 2026-04-29 20:23 | 6.16919 | -75.42985 | 7020 ft | 3 kts | 345° |
| 2026-04-29 20:23 | 6.16899 | -75.42979 | 7019 ft | 3 kts | 347° |
| 2026-04-29 20:24 | 6.16880 | -75.42976 | 7021 ft | 3 kts | 22° |
| 2026-04-29 20:24 | 6.16873 | -75.42980 | 7021 ft | 1 kts | 76° |
| 2026-04-29 20:24 | 6.16873 | -75.42981 | 7021 ft | 0 kts | 76° |
| 2026-04-29 20:28 | 6.16875 | -75.42969 | 7020 ft | 4 kts | 78° |
| 2026-04-29 20:28 | 6.16881 | -75.42949 | 7020 ft | 1 kts | 72° |
| 2026-04-29 20:28 | 6.16883 | -75.42942 | 7020 ft | 1 kts | 80° |
| 2026-04-29 20:29 | 6.16886 | -75.42923 | 7019 ft | 7 kts | 79° |
| 2026-04-29 20:29 | 6.16903 | -75.42854 | 7016 ft | 13 kts | 76° |
| 2026-04-29 20:29 | 6.16940 | -75.42747 | 7020 ft | 19 kts | 59° |
| 2026-04-29 20:29 | 6.17041 | -75.42638 | 7017 ft | 20 kts | 64° |
| 2026-04-29 20:30 | 6.16971 | -75.42547 | 7017 ft | 18 kts | 149° |
| 2026-04-29 20:30 | 6.16858 | -75.42487 | 7016 ft | 19 kts | 169° |
| 2026-04-29 20:30 | 6.16713 | -75.42485 | 7012 ft | 22 kts | 180° |
| 2026-04-29 20:30 | 6.16546 | -75.42484 | 7004 ft | 26 kts | 179° |
| 2026-04-29 20:31 | 6.16352 | -75.42482 | 6994 ft | 29 kts | 179° |
| 2026-04-29 20:31 | 6.16138 | -75.42481 | 6987 ft | 32 kts | 180° |
| 2026-04-29 20:31 | 6.15914 | -75.42479 | 6984 ft | 33 kts | 180° |
| 2026-04-29 20:31 | 6.15681 | -75.42477 | 6981 ft | 34 kts | 179° |
| 2026-04-29 20:32 | 6.15446 | -75.42476 | 6980 ft | 34 kts | 179° |
| 2026-04-29 20:32 | 6.15210 | -75.42475 | 6978 ft | 34 kts | 179° |
| 2026-04-29 20:32 | 6.14979 | -75.42473 | 6977 ft | 26 kts | 179° |
| 2026-04-29 20:32 | 6.14912 | -75.42462 | 6977 ft | 9 kts | 141° |
| 2026-04-29 20:33 | 6.14900 | -75.42398 | 6977 ft | 10 kts | 90° |
| 2026-04-29 20:33 | 6.14938 | -75.42328 | 6977 ft | 15 kts | 33° |
| 2026-04-29 20:33 | 6.15050 | -75.42303 | 6978 ft | 19 kts | 0° |
| 2026-04-29 20:33 | 6.15379 | -75.42304 | 6981 ft | 82 kts | 359° |
| 2026-04-29 20:34 | 6.16169 | -75.42311 | 6985 ft | 141 kts | 360° |
| 2026-04-29 20:34 | 6.17315 | -75.42316 | 7029 ft | 185 kts | 0° |
| 2026-04-29 20:34 | 6.18617 | -75.42312 | 7730 ft | 187 kts | 0° |
| 2026-04-29 20:34 | 6.19904 | -75.42327 | 8473 ft | 184 kts | 1° |
| 2026-04-29 20:35 | 6.21169 | -75.42253 | 8985 ft | 180 kts | 20° |
| 2026-04-29 20:35 | 6.22231 | -75.41589 | 9182 ft | 190 kts | 53° |
| 2026-04-29 20:35 | 6.22772 | -75.40329 | 9342 ft | 205 kts | 88° |
| 2026-04-29 20:35 | 6.22438 | -75.38936 | 9739 ft | 211 kts | 124° |
| 2026-04-29 20:36 | 6.21509 | -75.37780 | 10251 ft | 213 kts | 128° |
| 2026-04-29 20:36 | 6.20625 | -75.36604 | 10736 ft | 214 kts | 127° |
| 2026-04-29 20:36 | 6.19752 | -75.35387 | 11247 ft | 215 kts | 126° |
| 2026-04-29 20:36 | 6.18878 | -75.34164 | 11735 ft | 216 kts | 126° |
| 2026-04-29 20:37 | 6.17996 | -75.32936 | 12219 ft | 217 kts | 126° |
| 2026-04-29 20:37 | 6.16945 | -75.31836 | 12587 ft | 226 kts | 150° |
| 2026-04-29 20:37 | 6.15369 | -75.31537 | 12714 ft | 249 kts | 187° |
| 2026-04-29 20:37 | 6.13751 | -75.32342 | 12838 ft | 278 kts | 224° |
| 2026-04-29 20:38 | 6.12623 | -75.34016 | 13026 ft | 303 kts | 238° |
| 2026-04-29 20:38 | 6.11290 | -75.35724 | 13170 ft | 321 kts | 219° |
| 2026-04-29 20:38 | 6.09380 | -75.37020 | 13297 ft | 340 kts | 206° |
| 2026-04-29 20:38 | 6.07247 | -75.37998 | 14147 ft | 328 kts | 200° |
| 2026-04-29 20:39 | 6.05211 | -75.38797 | 15290 ft | 307 kts | 198° |
| 2026-04-29 20:39 | 6.03285 | -75.39551 | 16438 ft | 287 kts | 199° |
| 2026-04-29 20:39 | 6.01458 | -75.40307 | 17219 ft | 282 kts | 200° |
| 2026-04-29 20:39 | 5.99654 | -75.41099 | 17781 ft | 283 kts | 201° |
| 2026-04-29 20:40 | 5.97839 | -75.41905 | 18311 ft | 285 kts | 197° |
| 2026-04-29 20:40 | 5.95983 | -75.42549 | 18758 ft | 286 kts | 196° |
| 2026-04-29 20:40 | 5.94091 | -75.43203 | 19199 ft | 288 kts | 197° |
| 2026-04-29 20:40 | 5.92187 | -75.43867 | 19640 ft | 289 kts | 197° |
| 2026-04-29 20:41 | 5.90303 | -75.44528 | 20040 ft | 291 kts | 197° |
| 2026-04-29 20:41 | 5.88383 | -75.45200 | 20442 ft | 294 kts | 197° |
| 2026-04-29 20:41 | 5.86440 | -75.45878 | 20837 ft | 296 kts | 197° |
| 2026-04-29 20:41 | 5.84482 | -75.46558 | 21253 ft | 298 kts | 197° |
| 2026-04-29 20:42 | 5.82513 | -75.47243 | 21646 ft | 300 kts | 197° |
| 2026-04-29 20:42 | 5.80507 | -75.47942 | 21870 ft | 311 kts | 197° |
| 2026-04-29 20:42 | 5.78431 | -75.48663 | 21918 ft | 328 kts | 198° |
| 2026-04-29 20:42 | 5.76216 | -75.49432 | 21924 ft | 345 kts | 197° |
| 2026-04-29 20:43 | 5.73887 | -75.50241 | 21924 ft | 361 kts | 198° |
| 2026-04-29 20:43 | 5.71452 | -75.51087 | 21921 ft | 377 kts | 198° |
| 2026-04-29 20:43 | 5.68918 | -75.51966 | 21921 ft | 393 kts | 198° |
| 2026-04-29 20:43 | 5.66309 | -75.52874 | 21924 ft | 409 kts | 198° |
| 2026-04-29 20:44 | 5.63574 | -75.53825 | 21926 ft | 424 kts | 198° |
| 2026-04-29 20:44 | 5.60736 | -75.54812 | 21924 ft | 437 kts | 198° |
| 2026-04-29 20:44 | 5.57826 | -75.55826 | 21929 ft | 448 kts | 198° |
| 2026-04-29 20:44 | 5.54855 | -75.56862 | 21933 ft | 452 kts | 198° |
| 2026-04-29 20:45 | 5.51903 | -75.57890 | 21934 ft | 454 kts | 198° |
| 2026-04-29 20:45 | 5.48915 | -75.58931 | 21939 ft | 454 kts | 198° |
| 2026-04-29 20:45 | 5.45924 | -75.59971 | 21941 ft | 455 kts | 198° |
| 2026-04-29 20:45 | 5.42928 | -75.61012 | 21940 ft | 454 kts | 198° |
| 2026-04-29 20:46 | 5.39931 | -75.62054 | 21944 ft | 454 kts | 198° |
| 2026-04-29 20:46 | 5.36972 | -75.63084 | 21947 ft | 455 kts | 198° |
| 2026-04-29 20:46 | 5.33979 | -75.64127 | 21953 ft | 455 kts | 198° |
| 2026-04-29 20:46 | 5.30984 | -75.65170 | 21973 ft | 455 kts | 198° |
| 2026-04-29 20:47 | 5.27993 | -75.66213 | 21996 ft | 454 kts | 198° |
| 2026-04-29 20:47 | 5.25000 | -75.67258 | 22013 ft | 454 kts | 198° |
| 2026-04-29 20:47 | 5.22011 | -75.68301 | 22027 ft | 454 kts | 198° |
| 2026-04-29 20:47 | 5.19057 | -75.69332 | 22033 ft | 454 kts | 198° |
| 2026-04-29 20:48 | 5.16071 | -75.70375 | 22043 ft | 454 kts | 198° |
| 2026-04-29 20:48 | 5.13083 | -75.71418 | 22047 ft | 454 kts | 198° |
| 2026-04-29 20:48 | 5.10096 | -75.72462 | 22046 ft | 454 kts | 198° |
| 2026-04-29 20:48 | 5.07106 | -75.73509 | 21964 ft | 454 kts | 198° |
| 2026-04-29 20:49 | 5.04151 | -75.74544 | 21970 ft | 454 kts | 198° |
| 2026-04-29 20:49 | 5.01166 | -75.75588 | 21975 ft | 454 kts | 198° |
| 2026-04-29 20:49 | 4.98168 | -75.76634 | 21979 ft | 454 kts | 198° |
| 2026-04-29 20:49 | 4.95178 | -75.77677 | 21985 ft | 454 kts | 198° |
| 2026-04-29 20:50 | 4.92223 | -75.78707 | 21987 ft | 454 kts | 198° |
| 2026-04-29 20:50 | 4.89238 | -75.79748 | 21994 ft | 454 kts | 198° |
| 2026-04-29 20:50 | 4.86248 | -75.80792 | 21997 ft | 454 kts | 198° |
| 2026-04-29 20:50 | 4.83258 | -75.81838 | 21996 ft | 454 kts | 198° |
| 2026-04-29 20:51 | 4.80305 | -75.82870 | 21996 ft | 454 kts | 198° |
| 2026-04-29 20:51 | 4.77383 | -75.84073 | 21990 ft | 454 kts | 206° |
| 2026-04-29 20:51 | 4.74603 | -75.85607 | 21911 ft | 455 kts | 208° |
| 2026-04-29 20:51 | 4.71844 | -75.87159 | 21908 ft | 455 kts | 208° |
| 2026-04-29 20:52 | 4.69076 | -75.88718 | 21910 ft | 455 kts | 208° |
| 2026-04-29 20:52 | 4.66356 | -75.90248 | 21908 ft | 455 kts | 208° |
| 2026-04-29 20:52 | 4.63592 | -75.91800 | 21911 ft | 455 kts | 208° |
| 2026-04-29 20:52 | 4.60825 | -75.93355 | 21915 ft | 455 kts | 208° |
| 2026-04-29 20:53 | 4.58059 | -75.94911 | 21917 ft | 455 kts | 208° |
| 2026-04-29 20:53 | 4.55288 | -75.96470 | 21918 ft | 455 kts | 208° |
| 2026-04-29 20:53 | 4.52562 | -75.98005 | 21929 ft | 455 kts | 208° |
| 2026-04-29 20:53 | 4.49788 | -75.99563 | 21929 ft | 455 kts | 208° |
| 2026-04-29 20:54 | 4.44262 | -76.02663 | 21932 ft | 455 kts | 208° |
| 2026-04-29 20:54 | 4.41492 | -76.04218 | 21932 ft | 455 kts | 208° |
| 2026-04-29 20:54 | 4.38762 | -76.05750 | 21937 ft | 455 kts | 208° |
| 2026-04-29 20:55 | 4.35990 | -76.07306 | 21938 ft | 455 kts | 208° |
| 2026-04-29 20:55 | 4.33220 | -76.08860 | 21943 ft | 455 kts | 208° |
| 2026-04-29 20:55 | 4.30456 | -76.10413 | 21945 ft | 455 kts | 208° |
| 2026-04-29 20:55 | 4.27684 | -76.11971 | 21949 ft | 455 kts | 208° |
| 2026-04-29 20:56 | 4.24955 | -76.13505 | 21953 ft | 455 kts | 208° |
| 2026-04-29 20:56 | 4.22196 | -76.15055 | 21954 ft | 455 kts | 208° |
| 2026-04-29 20:56 | 4.19414 | -76.16617 | 21962 ft | 455 kts | 208° |
| 2026-04-29 20:56 | 4.16650 | -76.18167 | 21966 ft | 455 kts | 208° |
| 2026-04-29 20:57 | 4.13888 | -76.19716 | 21967 ft | 455 kts | 208° |
| 2026-04-29 20:57 | 4.11124 | -76.21174 | 21969 ft | 454 kts | 203° |
| 2026-04-29 20:57 | 4.08155 | -76.22222 | 21938 ft | 449 kts | 194° |
| 2026-04-29 20:57 | 4.05128 | -76.22759 | 21696 ft | 434 kts | 184° |
| 2026-04-29 20:58 | 4.02127 | -76.23032 | 21246 ft | 428 kts | 184° |
| 2026-04-29 20:58 | 3.99167 | -76.23307 | 20623 ft | 426 kts | 184° |
| 2026-04-29 20:58 | 3.96230 | -76.23584 | 20039 ft | 423 kts | 184° |
| 2026-04-29 20:58 | 3.93299 | -76.23865 | 19465 ft | 421 kts | 184° |
| 2026-04-29 20:59 | 3.90419 | -76.24148 | 18903 ft | 420 kts | 184° |
| 2026-04-29 20:59 | 3.87516 | -76.24436 | 18340 ft | 418 kts | 184° |
| 2026-04-29 20:59 | 3.84621 | -76.24726 | 17777 ft | 415 kts | 184° |
| 2026-04-29 20:59 | 3.81761 | -76.25009 | 17212 ft | 412 kts | 184° |
| 2026-04-29 21:00 | 3.78920 | -76.25283 | 16628 ft | 409 kts | 184° |
| 2026-04-29 21:00 | 3.76086 | -76.25553 | 16019 ft | 406 kts | 184° |
| 2026-04-29 21:00 | 3.73306 | -76.25817 | 15412 ft | 404 kts | 184° |
| 2026-04-29 21:00 | 3.70506 | -76.26085 | 14791 ft | 402 kts | 184° |
| 2026-04-29 21:01 | 3.67716 | -76.26354 | 14157 ft | 401 kts | 184° |
| 2026-04-29 21:01 | 3.64944 | -76.26644 | 13478 ft | 399 kts | 185° |
| 2026-04-29 21:01 | 3.62220 | -76.26970 | 12828 ft | 396 kts | 186° |
| 2026-04-29 21:01 | 3.59497 | -76.27321 | 12173 ft | 392 kts | 186° |
| 2026-04-29 21:02 | 3.56806 | -76.27677 | 11533 ft | 388 kts | 186° |
| 2026-04-29 21:02 | 3.54139 | -76.28026 | 10907 ft | 384 kts | 186° |
| 2026-04-29 21:02 | 3.51527 | -76.28363 | 10660 ft | 370 kts | 186° |
| 2026-04-29 21:02 | 3.49032 | -76.28730 | 10539 ft | 354 kts | 191° |
| 2026-04-29 21:03 | 3.46679 | -76.29252 | 10434 ft | 339 kts | 192° |
| 2026-04-29 21:03 | 3.44439 | -76.29747 | 10296 ft | 327 kts | 192° |
| 2026-04-29 21:03 | 3.42250 | -76.30229 | 10136 ft | 316 kts | 192° |
| 2026-04-29 21:03 | 3.40170 | -76.30689 | 10024 ft | 295 kts | 192° |
| 2026-04-29 21:04 | 3.38231 | -76.31118 | 9909 ft | 275 kts | 192° |
| 2026-04-29 21:04 | 3.36398 | -76.31570 | 9813 ft | 267 kts | 196° |
| 2026-04-29 21:04 | 3.34693 | -76.32241 | 9679 ft | 259 kts | 211° |
| 2026-04-29 21:04 | 3.33484 | -76.33474 | 9562 ft | 249 kts | 245° |
| 2026-04-29 21:05 | 3.33216 | -76.35157 | 9194 ft | 249 kts | 282° |
| 2026-04-29 21:05 | 3.33911 | -76.36733 | 8832 ft | 250 kts | 300° |
| 2026-04-29 21:05 | 3.34782 | -76.38226 | 8502 ft | 251 kts | 301° |
| 2026-04-29 21:05 | 3.35678 | -76.39729 | 8079 ft | 252 kts | 306° |
| 2026-04-29 21:06 | 3.36986 | -76.40850 | 7595 ft | 248 kts | 331° |
| 2026-04-29 21:06 | 3.38367 | -76.41789 | 7372 ft | 235 kts | 320° |
| 2026-04-29 21:06 | 3.39704 | -76.42604 | 7181 ft | 219 kts | 349° |
| 2026-04-29 21:06 | 3.41182 | -76.42502 | 7021 ft | 215 kts | 21° |
| 2026-04-29 21:07 | 3.42479 | -76.41684 | 6864 ft | 226 kts | 45° |
| 2026-04-29 21:07 | 3.43366 | -76.40385 | 6702 ft | 228 kts | 68° |
| 2026-04-29 21:07 | 3.43656 | -76.39364 | 6629 ft | 229 kts | 82° |
| 2026-04-29 21:07 | 3.43468 | -76.37282 | 6484 ft | 229 kts | 110° |
| 2026-04-29 21:08 | 3.42676 | -76.35911 | 6366 ft | 229 kts | 132° |
| 2026-04-29 21:08 | 3.41435 | -76.34931 | 6254 ft | 228 kts | 154° |
| 2026-04-29 21:08 | 3.39934 | -76.34455 | 6141 ft | 227 kts | 170° |
| 2026-04-29 21:08 | 3.38370 | -76.34214 | 6052 ft | 227 kts | 174° |
| 2026-04-29 21:09 | 3.37328 | -76.34087 | 6004 ft | 226 kts | 174° |
| 2026-04-29 21:09 | 3.35246 | -76.33855 | 6024 ft | 227 kts | 174° |
| 2026-04-29 21:09 | 3.33670 | -76.33680 | 6030 ft | 227 kts | 174° |
| 2026-04-29 21:09 | 3.32629 | -76.33561 | 6039 ft | 227 kts | 174° |
| 2026-04-29 21:10 | 3.31052 | -76.33378 | 6048 ft | 228 kts | 174° |
| 2026-04-29 21:10 | 3.29476 | -76.33373 | 6045 ft | 226 kts | 193° |
| 2026-04-29 21:10 | 3.28037 | -76.33981 | 6054 ft | 225 kts | 218° |
| 2026-04-29 21:10 | 3.26998 | -76.35125 | 6057 ft | 223 kts | 242° |
| 2026-04-29 21:11 | 3.26543 | -76.36596 | 6061 ft | 222 kts | 267° |
| 2026-04-29 21:11 | 3.26753 | -76.38119 | 6053 ft | 222 kts | 292° |
| 2026-04-29 21:11 | 3.27572 | -76.39401 | 6053 ft | 222 kts | 316° |
| 2026-04-29 21:11 | 3.28869 | -76.40233 | 6041 ft | 223 kts | 341° |
| 2026-04-29 21:12 | 3.30361 | -76.40548 | 6066 ft | 211 kts | 351° |
| 2026-04-29 21:12 | 3.31748 | -76.40725 | 6036 ft | 195 kts | 353° |
| 2026-04-29 21:12 | 3.33041 | -76.40869 | 6016 ft | 178 kts | 353° |
| 2026-04-29 21:12 | 3.34257 | -76.41004 | 6021 ft | 177 kts | 353° |
| 2026-04-29 21:13 | 3.35492 | -76.41144 | 6019 ft | 179 kts | 353° |
| 2026-04-29 21:13 | 3.36737 | -76.41221 | 6000 ft | 177 kts | 8° |
| 2026-04-29 21:13 | 3.37916 | -76.41003 | 5971 ft | 174 kts | 9° |
| 2026-04-29 21:13 | 3.39090 | -76.40806 | 5801 ft | 173 kts | 9° |
| 2026-04-29 21:14 | 3.40270 | -76.40605 | 5611 ft | 165 kts | 9° |
| 2026-04-29 21:14 | 3.41373 | -76.40415 | 5393 ft | 157 kts | 9° |
| 2026-04-29 21:14 | 3.42437 | -76.40231 | 5192 ft | 154 kts | 9° |
| 2026-04-29 21:14 | 3.43486 | -76.40049 | 4996 ft | 152 kts | 9° |
| 2026-04-29 21:15 | 3.44525 | -76.39869 | 4801 ft | 151 kts | 9° |
| 2026-04-29 21:15 | 3.45562 | -76.39689 | 4595 ft | 151 kts | 9° |
| 2026-04-29 21:15 | 3.46582 | -76.39512 | 4390 ft | 150 kts | 10° |
| 2026-04-29 21:15 | 3.47609 | -76.39333 | 4179 ft | 149 kts | 10° |
| 2026-04-29 21:16 | 3.48633 | -76.39156 | 3983 ft | 149 kts | 10° |
| 2026-04-29 21:16 | 3.49650 | -76.38981 | 3802 ft | 147 kts | 9° |
| 2026-04-29 21:16 | 3.50648 | -76.38791 | 3631 ft | 145 kts | 10° |
| 2026-04-29 21:16 | 3.51629 | -76.38620 | 3457 ft | 145 kts | 8° |
| 2026-04-29 21:17 | 3.52621 | -76.38457 | 3281 ft | 144 kts | 8° |
| 2026-04-29 21:17 | 3.53586 | -76.38295 | 3164 ft | 127 kts | 9° |
| 2026-04-29 21:17 | 3.54179 | -76.38193 | 3166 ft | 43 kts | 9° |
| 2026-04-29 21:17 | 3.54269 | -76.38178 | 3166 ft | 7 kts | 9° |
| 2026-04-29 21:18 | 3.54366 | -76.38161 | 3166 ft | 21 kts | 10° |
| 2026-04-29 21:18 | 3.54528 | -76.38133 | 3166 ft | 20 kts | 9° |
| 2026-04-29 21:18 | 3.54601 | -76.38191 | 3165 ft | 7 kts | 282° |
| 2026-04-29 21:18 | 3.54607 | -76.38251 | 3166 ft | 10 kts | 262° |
| 2026-04-29 21:19 | 3.54552 | -76.38292 | 3166 ft | 12 kts | 187° |
| 2026-04-29 21:19 | 3.54459 | -76.38307 | 3166 ft | 15 kts | 190° |
| 2026-04-29 21:19 | 3.54347 | -76.38327 | 3165 ft | 18 kts | 190° |
| 2026-04-29 21:19 | 3.54217 | -76.38350 | 3165 ft | 21 kts | 190° |
| 2026-04-29 21:20 | 3.54071 | -76.38392 | 3164 ft | 23 kts | 218° |
| 2026-04-29 21:20 | 3.53940 | -76.38502 | 3163 ft | 26 kts | 220° |
| 2026-04-29 21:20 | 3.53830 | -76.38593 | 3162 ft | 21 kts | 219° |
| 2026-04-29 21:20 | 3.53753 | -76.38632 | 3165 ft | 9 kts | 190° |
| 2026-04-29 21:21 | 3.53729 | -76.38637 | 3162 ft | 0 kts | 189° |